sensor_id;sensor_type;location;lat;lon;timestamp;pressure;altitude;pressure_sealevel;temperature;humidity
14293;BME280;62290;59.420;17.842;2023-02-11T00:01:26;99756.69;;;27.16;19.67
14293;BME280;62290;59.420;17.842;2023-02-11T00:03:56;99767.50;;;27.16;20.09
14293;BME280;62290;59.420;17.842;2023-02-11T00:06:27;99757.50;;;27.17;19.85
14293;BME280;62290;59.420;17.842;2023-02-11T00:08:55;99754.78;;;27.17;19.95
14293;BME280;62290;59.420;17.842;2023-02-11T00:11:24;99761.03;;;27.17;19.92
14293;BME280;62290;59.420;17.842;2023-02-11T00:13:58;99754.97;;;27.15;20.22
14293;BME280;62290;59.420;17.842;2023-02-11T00:16:27;99753.97;;;27.16;19.78
14293;BME280;62290;59.420;17.842;2023-02-11T00:18:58;99748.22;;;27.19;20.17
14293;BME280;62290;59.420;17.842;2023-02-11T00:21:26;99742.41;;;27.22;20.13
14293;BME280;62290;59.420;17.842;2023-02-11T00:23:55;99741.03;;;27.26;19.81
14293;BME280;62290;59.420;17.842;2023-02-11T00:26:27;99719.31;;;27.12;19.69
14293;BME280;62290;59.420;17.842;2023-02-11T00:28:58;99734.59;;;27.27;20.00
14293;BME280;62290;59.420;17.842;2023-02-11T00:31:27;99740.38;;;27.24;20.02
14293;BME280;62290;59.420;17.842;2023-02-11T00:33:55;99717.72;;;27.03;19.81
14293;BME280;62290;59.420;17.842;2023-02-11T00:36:26;99737.81;;;27.08;20.13
14293;BME280;62290;59.420;17.842;2023-02-11T00:38:56;99716.56;;;26.97;20.00
14293;BME280;62290;59.420;17.842;2023-02-11T00:41:24;99718.69;;;26.87;19.77
14293;BME280;62290;59.420;17.842;2023-02-11T00:43:52;99716.03;;;26.79;20.25
14293;BME280;62290;59.420;17.842;2023-02-11T00:46:22;99711.28;;;26.73;19.80
14293;BME280;62290;59.420;17.842;2023-02-11T00:48:50;99712.00;;;26.67;20.31
14293;BME280;62290;59.420;17.842;2023-02-11T00:51:20;99723.53;;;26.61;20.17
14293;BME280;62290;59.420;17.842;2023-02-11T00:53:49;99729.63;;;26.55;20.38
14293;BME280;62290;59.420;17.842;2023-02-11T00:56:17;99733.06;;;26.49;20.40
14293;BME280;62290;59.420;17.842;2023-02-11T00:58:45;99726.47;;;26.51;20.03
14293;BME280;62290;59.420;17.842;2023-02-11T01:01:13;99718.16;;;26.53;19.86
14293;BME280;62290;59.420;17.842;2023-02-11T01:03:43;99723.88;;;26.58;19.99
14293;BME280;62290;59.420;17.842;2023-02-11T01:06:11;99717.13;;;26.62;19.82
14293;BME280;62290;59.420;17.842;2023-02-11T01:08:39;99718.97;;;26.61;20.09
14293;BME280;62290;59.420;17.842;2023-02-11T01:11:12;99716.63;;;26.58;19.88
14293;BME280;62290;59.420;17.842;2023-02-11T01:13:42;99720.19;;;26.51;19.85
14293;BME280;62290;59.420;17.842;2023-02-11T01:16:10;99703.88;;;26.36;20.19
14293;BME280;62290;59.420;17.842;2023-02-11T01:18:39;99714.34;;;26.39;19.97
14293;BME280;62290;59.420;17.842;2023-02-11T01:21:11;99714.22;;;26.32;20.02
14293;BME280;62290;59.420;17.842;2023-02-11T01:23:39;99721.66;;;26.30;20.45
14293;BME280;62290;59.420;17.842;2023-02-11T01:26:07;99703.44;;;26.24;20.15
14293;BME280;62290;59.420;17.842;2023-02-11T01:28:35;99694.69;;;26.22;20.23
14293;BME280;62290;59.420;17.842;2023-02-11T01:31:04;99689.44;;;26.21;20.35
14293;BME280;62290;59.420;17.842;2023-02-11T01:33:32;99674.09;;;26.05;20.62
14293;BME280;62290;59.420;17.842;2023-02-11T01:36:00;99706.81;;;26.18;20.37
14293;BME280;62290;59.420;17.842;2023-02-11T01:38:31;99702.47;;;26.17;20.77
14293;BME280;62290;59.420;17.842;2023-02-11T01:41:00;99712.56;;;26.15;20.27
14293;BME280;62290;59.420;17.842;2023-02-11T01:43:32;99717.47;;;26.12;20.63
14293;BME280;62290;59.420;17.842;2023-02-11T01:46:16;99699.81;;;25.93;20.76
14293;BME280;62290;59.420;17.842;2023-02-11T01:48:48;99707.34;;;26.06;20.53
14293;BME280;62290;59.420;17.842;2023-02-11T01:51:22;99680.94;;;25.85;20.43
14293;BME280;62290;59.420;17.842;2023-02-11T01:53:53;99716.44;;;26.05;20.91
14293;BME280;62290;59.420;17.842;2023-02-11T01:56:42;99715.78;;;26.03;20.83
14293;BME280;62290;59.420;17.842;2023-02-11T01:59:31;99713.09;;;26.03;20.43
14293;BME280;62290;59.420;17.842;2023-02-11T02:02:06;99713.09;;;26.03;20.90
14293;BME280;62290;59.420;17.842;2023-02-11T02:04:38;99700.63;;;26.02;20.84
14293;BME280;62290;59.420;17.842;2023-02-11T02:07:15;99705.00;;;26.03;20.90
14293;BME280;62290;59.420;17.842;2023-02-11T02:09:48;99705.84;;;26.03;20.44
14293;BME280;62290;59.420;17.842;2023-02-11T02:12:19;99711.44;;;26.02;20.84
14293;BME280;62290;59.420;17.842;2023-02-11T02:14:47;99698.44;;;25.97;20.67
14293;BME280;62290;59.420;17.842;2023-02-11T02:17:24;99696.88;;;26.03;20.50
14293;BME280;62290;59.420;17.842;2023-02-11T02:20:15;99706.38;;;25.99;20.57
14293;BME280;62290;59.420;17.842;2023-02-11T02:23:10;99721.38;;;26.01;20.65
14293;BME280;62290;59.420;17.842;2023-02-11T02:32:26;99698.50;;;25.81;20.96
14293;BME280;62290;59.420;17.842;2023-02-11T02:35:03;99730.47;;;26.00;20.79
14293;BME280;62290;59.420;17.842;2023-02-11T02:37:39;99733.03;;;26.02;20.96
14293;BME280;62290;59.420;17.842;2023-02-11T02:40:11;99735.53;;;26.03;20.95
14293;BME280;62290;59.420;17.842;2023-02-11T02:42:43;99738.25;;;26.03;20.87
14293;BME280;62290;59.420;17.842;2023-02-11T02:45:12;99748.03;;;26.04;20.79
14293;BME280;62290;59.420;17.842;2023-02-11T02:47:42;99723.25;;;25.93;21.01
14293;BME280;62290;59.420;17.842;2023-02-11T02:50:12;99757.81;;;26.05;21.10
14293;BME280;62290;59.420;17.842;2023-02-11T02:52:48;99755.44;;;26.02;21.19
14293;BME280;62290;59.420;17.842;2023-02-11T02:55:27;99755.44;;;26.02;21.13
14293;BME280;62290;59.420;17.842;2023-02-11T02:58:20;99758.31;;;26.01;21.14
14293;BME280;62290;59.420;17.842;2023-02-11T03:00:58;99755.63;;;26.01;21.21
14293;BME280;62290;59.420;17.842;2023-02-11T03:03:36;99762.88;;;26.00;21.34
14293;BME280;62290;59.420;17.842;2023-02-11T03:06:12;99760.34;;;25.99;21.39
14293;BME280;62290;59.420;17.842;2023-02-11T03:08:47;99774.00;;;25.97;21.46
14293;BME280;62290;59.420;17.842;2023-02-11T03:11:17;99775.03;;;25.96;21.45
14293;BME280;62290;59.420;17.842;2023-02-11T03:13:48;99780.59;;;25.95;21.18
14293;BME280;62290;59.420;17.842;2023-02-11T03:16:19;99778.41;;;25.90;21.14
14293;BME280;62290;59.420;17.842;2023-02-11T03:18:55;99780.59;;;25.87;21.50
14293;BME280;62290;59.420;17.842;2023-02-11T03:21:24;99791.59;;;25.85;21.67
14293;BME280;62290;59.420;17.842;2023-02-11T03:23:55;99799.88;;;25.84;21.35
14293;BME280;62290;59.420;17.842;2023-02-11T03:26:27;99814.19;;;25.84;21.60
14293;BME280;62290;59.420;17.842;2023-02-11T03:29:02;99811.47;;;25.84;21.25
14293;BME280;62290;59.420;17.842;2023-02-11T03:31:37;99808.13;;;25.82;21.68
14293;BME280;62290;59.420;17.842;2023-02-11T03:34:10;99826.00;;;25.83;21.69
14293;BME280;62290;59.420;17.842;2023-02-11T03:36:44;99791.78;;;25.67;21.14
14293;BME280;62290;59.420;17.842;2023-02-11T03:39:17;99829.72;;;25.82;21.74
14293;BME280;62290;59.420;17.842;2023-02-11T03:41:47;99823.31;;;25.83;21.65
14293;BME280;62290;59.420;17.842;2023-02-11T03:44:17;99820.75;;;25.82;21.38
14293;BME280;62290;59.420;17.842;2023-02-11T03:46:48;99818.91;;;25.82;21.55
14293;BME280;62290;59.420;17.842;2023-02-11T03:49:20;99824.31;;;25.82;21.33
14293;BME280;62290;59.420;17.842;2023-02-11T03:51:51;99809.16;;;25.65;21.55
14293;BME280;62290;59.420;17.842;2023-02-11T03:54:26;99847.75;;;25.82;21.81
14293;BME280;62290;59.420;17.842;2023-02-11T03:56:57;99856.19;;;25.78;21.52
14293;BME280;62290;59.420;17.842;2023-02-11T03:59:26;99851.28;;;25.74;21.48
14293;BME280;62290;59.420;17.842;2023-02-11T04:01:54;99862.28;;;25.81;21.41
14293;BME280;62290;59.420;17.842;2023-02-11T04:04:24;99866.66;;;25.82;21.52
14293;BME280;62290;59.420;17.842;2023-02-11T04:06:52;99870.53;;;25.79;21.68
14293;BME280;62290;59.420;17.842;2023-02-11T04:09:20;99874.25;;;25.78;21.31
14293;BME280;62290;59.420;17.842;2023-02-11T04:11:48;99889.28;;;25.81;21.35
14293;BME280;62290;59.420;17.842;2023-02-11T04:14:16;99890.44;;;25.78;21.66
14293;BME280;62290;59.420;17.842;2023-02-11T04:16:44;99886.91;;;25.77;21.27
14293;BME280;62290;59.420;17.842;2023-02-11T04:19:12;99889.59;;;25.77;21.58
14293;BME280;62290;59.420;17.842;2023-02-11T04:21:42;99901.25;;;25.78;21.77
14293;BME280;62290;59.420;17.842;2023-02-11T04:24:10;99905.94;;;25.76;21.68
14293;BME280;62290;59.420;17.842;2023-02-11T04:26:38;99911.34;;;25.76;21.63
14293;BME280;62290;59.420;17.842;2023-02-11T04:29:06;99907.97;;;25.74;21.56
14293;BME280;62290;59.420;17.842;2023-02-11T04:31:34;99918.94;;;25.72;21.94
14293;BME280;62290;59.420;17.842;2023-02-11T04:34:02;99918.94;;;25.72;21.91
14293;BME280;62290;59.420;17.842;2023-02-11T04:36:30;99928.72;;;25.73;21.85
14293;BME280;62290;59.420;17.842;2023-02-11T04:38:59;99931.25;;;25.75;21.92
14293;BME280;62290;59.420;17.842;2023-02-11T04:41:27;99934.09;;;25.73;21.59
14293;BME280;62290;59.420;17.842;2023-02-11T04:43:55;99940.00;;;25.69;21.76
14293;BME280;62290;59.420;17.842;2023-02-11T04:46:23;99955.03;;;25.71;21.65
14293;BME280;62290;59.420;17.842;2023-02-11T04:48:51;99968.69;;;25.70;21.77
14293;BME280;62290;59.420;17.842;2023-02-11T04:51:19;99970.53;;;25.69;21.76
14293;BME280;62290;59.420;17.842;2023-02-11T04:53:47;99976.94;;;25.68;21.81
14293;BME280;62290;59.420;17.842;2023-02-11T04:56:17;99982.34;;;25.68;22.08
14293;BME280;62290;59.420;17.842;2023-02-11T04:58:45;99995.00;;;25.68;21.66
14293;BME280;62290;59.420;17.842;2023-02-11T05:01:14;99988.59;;;25.69;22.13
14293;BME280;62290;59.420;17.842;2023-02-11T05:03:42;99998.53;;;25.68;21.71
14293;BME280;62290;59.420;17.842;2023-02-11T05:06:11;99991.13;;;25.62;22.05
14293;BME280;62290;59.420;17.842;2023-02-11T05:08:39;100008.50;;;25.68;21.99
14293;BME280;62290;59.420;17.842;2023-02-11T05:11:14;100005.44;;;25.71;21.80
14293;BME280;62290;59.420;17.842;2023-02-11T05:13:44;100018.28;;;25.69;21.44
14293;BME280;62290;59.420;17.842;2023-02-11T05:16:13;100034.47;;;25.69;21.58
14293;BME280;62290;59.420;17.842;2023-02-11T05:18:42;100044.25;;;25.70;21.49
14293;BME280;62290;59.420;17.842;2023-02-11T05:21:14;100054.03;;;25.71;21.48
14293;BME280;62290;59.420;17.842;2023-02-11T05:23:43;100059.59;;;25.69;21.78
14293;BME280;62290;59.420;17.842;2023-02-11T05:26:12;100063.16;;;25.70;21.68
14293;BME280;62290;59.420;17.842;2023-02-11T05:28:41;100060.44;;;25.70;21.27
14293;BME280;62290;59.420;17.842;2023-02-11T05:31:11;100064.69;;;25.72;21.27
14293;BME280;62290;59.420;17.842;2023-02-11T05:33:40;100070.22;;;25.71;21.36
14293;BME280;62290;59.420;17.842;2023-02-11T05:36:10;100083.72;;;25.71;21.22
14293;BME280;62290;59.420;17.842;2023-02-11T05:38:39;100084.75;;;25.70;21.33
14293;BME280;62290;59.420;17.842;2023-02-11T05:41:09;100087.44;;;25.70;21.21
14293;BME280;62290;59.420;17.842;2023-02-11T05:43:37;100108.00;;;25.71;21.44
14293;BME280;62290;59.420;17.842;2023-02-11T05:46:06;100107.84;;;25.72;21.15
14293;BME280;62290;59.420;17.842;2023-02-11T05:48:35;100120.50;;;25.72;21.07
14293;BME280;62290;59.420;17.842;2023-02-11T05:51:03;100144.97;;;25.70;21.45
14293;BME280;62290;59.420;17.842;2023-02-11T05:53:31;100146.94;;;25.68;21.51
14293;BME280;62290;59.420;17.842;2023-02-11T05:56:00;100149.97;;;25.65;21.25
14293;BME280;62290;59.420;17.842;2023-02-11T05:58:28;100160.44;;;25.68;21.05
14293;BME280;62290;59.420;17.842;2023-02-11T06:00:56;100168.72;;;25.67;21.15
14293;BME280;62290;59.420;17.842;2023-02-11T06:03:24;100169.72;;;25.66;21.49
14293;BME280;62290;59.420;17.842;2023-02-11T06:05:54;100171.56;;;25.65;21.38
14293;BME280;62290;59.420;17.842;2023-02-11T06:08:22;100186.06;;;25.64;21.60
14293;BME280;62290;59.420;17.842;2023-02-11T06:10:50;100193.16;;;25.65;21.29
14293;BME280;62290;59.420;17.842;2023-02-11T06:13:18;100206.63;;;25.65;21.68
14293;BME280;62290;59.420;17.842;2023-02-11T06:15:54;100229.06;;;25.66;21.17
14293;BME280;62290;59.420;17.842;2023-02-11T06:18:23;100227.72;;;25.62;21.20
14293;BME280;62290;59.420;17.842;2023-02-11T06:20:51;100230.41;;;25.62;21.48
14293;BME280;62290;59.420;17.842;2023-02-11T06:23:21;100242.06;;;25.62;21.72
14293;BME280;62290;59.420;17.842;2023-02-11T06:25:49;100236.81;;;25.61;21.51
14293;BME280;62290;59.420;17.842;2023-02-11T06:28:18;100240.34;;;25.61;21.25
14293;BME280;62290;59.420;17.842;2023-02-11T06:30:46;100251.31;;;25.60;21.67
14293;BME280;62290;59.420;17.842;2023-02-11T06:33:14;100268.34;;;25.60;21.13
14293;BME280;62290;59.420;17.842;2023-02-11T06:35:42;100274.75;;;25.59;21.15
14293;BME280;62290;59.420;17.842;2023-02-11T06:38:10;100269.34;;;25.59;21.10
14293;BME280;62290;59.420;17.842;2023-02-11T06:40:40;100276.59;;;25.59;21.39
14293;BME280;62290;59.420;17.842;2023-02-11T06:43:08;100268.81;;;25.56;21.05
14293;BME280;62290;59.420;17.842;2023-02-11T06:45:36;100281.31;;;25.57;21.04
14293;BME280;62290;59.420;17.842;2023-02-11T06:48:04;100285.69;;;25.58;21.41
14293;BME280;62290;59.420;17.842;2023-02-11T06:50:32;100296.66;;;25.56;20.85
14293;BME280;62290;59.420;17.842;2023-02-11T06:53:00;100299.19;;;25.58;20.83
14293;BME280;62290;59.420;17.842;2023-02-11T06:55:28;100308.97;;;25.59;20.84
14293;BME280;62290;59.420;17.842;2023-02-11T06:57:58;100333.09;;;25.60;21.17
14293;BME280;62290;59.420;17.842;2023-02-11T07:00:25;100348.59;;;25.58;20.74
14293;BME280;62290;59.420;17.842;2023-02-11T07:02:54;100354.84;;;25.59;20.90
14293;BME280;62290;59.420;17.842;2023-02-11T07:05:22;100359.69;;;25.55;20.94
14293;BME280;62290;59.420;17.842;2023-02-11T07:07:50;100360.56;;;25.56;20.92
14293;BME280;62290;59.420;17.842;2023-02-11T07:10:18;100373.06;;;25.57;20.78
14293;BME280;62290;59.420;17.842;2023-02-11T07:12:46;100394.63;;;25.57;21.18
14293;BME280;62290;59.420;17.842;2023-02-11T07:15:16;100409.66;;;25.59;20.85
14293;BME280;62290;59.420;17.842;2023-02-11T07:17:44;100419.63;;;25.59;21.10
14293;BME280;62290;59.420;17.842;2023-02-11T07:20:12;100433.78;;;25.61;21.27
14293;BME280;62290;59.420;17.842;2023-02-11T07:22:41;100442.91;;;25.60;20.76
14293;BME280;62290;59.420;17.842;2023-02-11T07:25:09;100440.22;;;25.60;21.17
14293;BME280;62290;59.420;17.842;2023-02-11T07:27:37;100435.81;;;25.59;21.20
14293;BME280;62290;59.420;17.842;2023-02-11T07:30:06;100452.84;;;25.59;20.75
14293;BME280;62290;59.420;17.842;2023-02-11T07:32:35;100468.75;;;25.62;20.81
14293;BME280;62290;59.420;17.842;2023-02-11T07:35:04;100477.81;;;25.61;20.92
14293;BME280;62290;59.420;17.842;2023-02-11T07:37:32;100469.91;;;25.60;20.77
14293;BME280;62290;59.420;17.842;2023-02-11T07:40:01;100481.50;;;25.60;20.78
14293;BME280;62290;59.420;17.842;2023-02-11T07:42:28;100478.97;;;25.59;21.02
14293;BME280;62290;59.420;17.842;2023-02-11T07:44:56;100493.16;;;25.61;20.82
14293;BME280;62290;59.420;17.842;2023-02-11T07:47:25;100510.22;;;25.61;20.64
14293;BME280;62290;59.420;17.842;2023-02-11T07:49:54;100524.56;;;25.62;21.04
14293;BME280;62290;59.420;17.842;2023-02-11T07:52:22;100529.56;;;25.57;21.15
14293;BME280;62290;59.420;17.842;2023-02-11T07:54:50;100536.34;;;25.61;20.87
14293;BME280;62290;59.420;17.842;2023-02-11T07:57:18;100541.75;;;25.61;20.82
14293;BME280;62290;59.420;17.842;2023-02-11T07:59:46;100549.53;;;25.64;20.91
14293;BME280;62290;59.420;17.842;2023-02-11T08:02:14;100564.19;;;25.61;21.15
14293;BME280;62290;59.420;17.842;2023-02-11T08:04:44;100575.84;;;25.62;21.13
14293;BME280;62290;59.420;17.842;2023-02-11T08:07:15;100587.31;;;25.64;20.75
14293;BME280;62290;59.420;17.842;2023-02-11T08:09:43;100602.66;;;25.63;20.77
14293;BME280;62290;59.420;17.842;2023-02-11T08:12:11;100610.06;;;25.61;21.10
14293;BME280;62290;59.420;17.842;2023-02-11T08:14:39;100612.59;;;25.63;20.91
14293;BME280;62290;59.420;17.842;2023-02-11T08:17:07;100620.56;;;25.64;21.15
14293;BME280;62290;59.420;17.842;2023-02-11T08:19:35;100634.06;;;25.64;20.69
14293;BME280;62290;59.420;17.842;2023-02-11T08:22:03;100649.41;;;25.64;21.10
14293;BME280;62290;59.420;17.842;2023-02-11T08:24:33;100661.03;;;25.64;21.21
14293;BME280;62290;59.420;17.842;2023-02-11T08:27:01;100667.59;;;25.62;20.87
14293;BME280;62290;59.420;17.842;2023-02-11T08:29:29;100670.13;;;25.63;20.86
14293;BME280;62290;59.420;17.842;2023-02-11T08:31:57;100676.53;;;25.62;20.84
14293;BME280;62290;59.420;17.842;2023-02-11T08:34:25;100681.94;;;25.62;21.23
14293;BME280;62290;59.420;17.842;2023-02-11T08:36:54;100692.00;;;25.60;20.78
14293;BME280;62290;59.420;17.842;2023-02-11T08:39:22;100715.47;;;25.60;20.92
14293;BME280;62290;59.420;17.842;2023-02-11T08:41:53;100744.00;;;25.62;20.80
14293;BME280;62290;59.420;17.842;2023-02-11T08:44:24;100751.25;;;25.62;20.90
14293;BME280;62290;59.420;17.842;2023-02-11T08:46:52;100761.19;;;25.61;20.76
14293;BME280;62290;59.420;17.842;2023-02-11T08:49:20;100767.56;;;25.60;20.94
14293;BME280;62290;59.420;17.842;2023-02-11T08:51:49;100785.47;;;25.61;20.81
14293;BME280;62290;59.420;17.842;2023-02-11T08:54:17;100796.13;;;25.63;21.28
14293;BME280;62290;59.420;17.842;2023-02-11T08:56:45;100802.38;;;25.63;21.24
14293;BME280;62290;59.420;17.842;2023-02-11T08:59:18;100806.78;;;25.64;21.10
14293;BME280;62290;59.420;17.842;2023-02-11T09:01:46;100805.22;;;25.62;20.72
14293;BME280;62290;59.420;17.842;2023-02-11T09:04:15;100830.22;;;25.64;20.67
14293;BME280;62290;59.420;17.842;2023-02-11T09:06:43;100845.44;;;25.65;20.83
14293;BME280;62290;59.420;17.842;2023-02-11T09:09:13;100846.25;;;25.65;20.59
14293;BME280;62290;59.420;17.842;2023-02-11T09:11:42;100860.63;;;25.66;20.67
14293;BME280;62290;59.420;17.842;2023-02-11T09:14:16;100870.28;;;25.68;20.53
14293;BME280;62290;59.420;17.842;2023-02-11T09:16:46;100868.44;;;25.69;20.49
14293;BME280;62290;59.420;17.842;2023-02-11T09:19:15;100879.38;;;25.67;20.81
14293;BME280;62290;59.420;17.842;2023-02-11T09:21:43;100902.38;;;25.71;20.36
14293;BME280;62290;59.420;17.842;2023-02-11T09:24:11;100906.78;;;25.72;20.61
14293;BME280;62290;59.420;17.842;2023-02-11T09:26:41;100918.44;;;25.73;20.43
14293;BME280;62290;59.420;17.842;2023-02-11T09:29:10;100930.94;;;25.74;20.48
14293;BME280;62290;59.420;17.842;2023-02-11T09:31:38;100933.34;;;25.77;20.21
14293;BME280;62290;59.420;17.842;2023-02-11T09:34:09;100929.78;;;25.76;20.14
14293;BME280;62290;59.420;17.842;2023-02-11T09:36:38;100959.22;;;25.80;20.01
14293;BME280;62290;59.420;17.842;2023-02-11T09:39:10;100977.84;;;25.83;20.43
14293;BME280;62290;59.420;17.842;2023-02-11T09:41:48;100988.63;;;25.83;19.96
14293;BME280;62290;59.420;17.842;2023-02-11T09:44:24;100985.22;;;25.81;19.98
14293;BME280;62290;59.420;17.842;2023-02-11T09:46:55;100986.91;;;25.82;20.25
14293;BME280;62290;59.420;17.842;2023-02-11T09:49:34;100988.91;;;25.80;20.31
14293;BME280;62290;59.420;17.842;2023-02-11T09:52:05;100997.44;;;25.85;19.82
14293;BME280;62290;59.420;17.842;2023-02-11T09:54:37;101012.78;;;25.84;20.05
14293;BME280;62290;59.420;17.842;2023-02-11T09:57:08;101021.72;;;25.85;20.00
14293;BME280;62290;59.420;17.842;2023-02-11T09:59:54;101035.38;;;25.83;20.03
14293;BME280;62290;59.420;17.842;2023-02-11T10:02:27;101038.94;;;25.84;20.36
14293;BME280;62290;59.420;17.842;2023-02-11T10:05:12;101037.22;;;25.83;20.37
14293;BME280;62290;59.420;17.842;2023-02-11T10:07:49;101050.72;;;25.83;20.29
14293;BME280;62290;59.420;17.842;2023-02-11T10:10:28;101054.28;;;25.83;20.11
14293;BME280;62290;59.420;17.842;2023-02-11T10:13:13;101058.69;;;25.84;20.46
14293;BME280;62290;59.420;17.842;2023-02-11T10:15:48;101073.31;;;25.82;20.51
14293;BME280;62290;59.420;17.842;2023-02-11T10:18:39;101076.88;;;25.82;20.12
14293;BME280;62290;59.420;17.842;2023-02-11T10:21:18;101084.09;;;25.82;20.49
14293;BME280;62290;59.420;17.842;2023-02-11T10:23:54;101100.31;;;25.82;20.53
14293;BME280;62290;59.420;17.842;2023-02-11T10:26:26;101099.47;;;25.81;20.15
14293;BME280;62290;59.420;17.842;2023-02-11T10:29:00;101100.31;;;25.82;20.19
14293;BME280;62290;59.420;17.842;2023-02-11T10:31:35;101104.72;;;25.83;20.53
14293;BME280;62290;59.420;17.842;2023-02-11T10:34:06;101116.38;;;25.83;20.18
14293;BME280;62290;59.420;17.842;2023-02-11T10:36:37;101116.25;;;25.85;20.41
14293;BME280;62290;59.420;17.842;2023-02-11T10:39:11;101122.34;;;25.87;20.44
14293;BME280;62290;59.420;17.842;2023-02-11T10:41:42;101128.75;;;25.86;20.44
14293;BME280;62290;59.420;17.842;2023-02-11T10:44:23;101136.72;;;25.87;20.30
14293;BME280;62290;59.420;17.842;2023-02-11T10:46:51;101143.50;;;25.82;20.10
14293;BME280;62290;59.420;17.842;2023-02-11T10:49:35;101154.19;;;25.83;20.05
14293;BME280;62290;59.420;17.842;2023-02-11T10:52:29;101159.16;;;25.78;20.48
14293;BME280;62290;59.420;17.842;2023-02-11T10:55:00;101161.84;;;25.78;20.40
14293;BME280;62290;59.420;17.842;2023-02-11T10:57:32;101173.38;;;25.80;20.53
14293;BME280;62290;59.420;17.842;2023-02-11T11:00:18;101169.69;;;25.81;20.18
14293;BME280;62290;59.420;17.842;2023-02-11T11:02:53;101178.59;;;25.82;20.07
14293;BME280;62290;59.420;17.842;2023-02-11T11:05:27;101175.63;;;25.75;20.23
14293;BME280;62290;59.420;17.842;2023-02-11T11:07:59;101199.50;;;25.80;20.27
14293;BME280;62290;59.420;17.842;2023-02-11T11:10:35;101197.66;;;25.80;20.17
14293;BME280;62290;59.420;17.842;2023-02-11T11:13:29;101217.97;;;25.84;20.27
14293;BME280;62290;59.420;17.842;2023-02-11T11:16:16;101226.94;;;25.85;20.14
14293;BME280;62290;59.420;17.842;2023-02-11T11:18:46;101242.44;;;25.83;19.73
14293;BME280;62290;59.420;17.842;2023-02-11T11:21:17;101251.41;;;25.83;20.16
14293;BME280;62290;59.420;17.842;2023-02-11T11:23:53;101247.25;;;25.79;19.89
14293;BME280;62290;59.420;17.842;2023-02-11T11:26:22;101266.03;;;25.81;20.04
14293;BME280;62290;59.420;17.842;2023-02-11T11:28:55;101276.69;;;25.82;19.79
14293;BME280;62290;59.420;17.842;2023-02-11T11:31:28;101277.69;;;25.81;19.99
14293;BME280;62290;59.420;17.842;2023-02-11T11:33:59;101276.81;;;25.81;19.97
14293;BME280;62290;59.420;17.842;2023-02-11T11:36:33;101293.03;;;25.81;19.93
14293;BME280;62290;59.420;17.842;2023-02-11T11:39:19;101300.00;;;25.83;19.81
14293;BME280;62290;59.420;17.842;2023-02-11T11:41:54;101322.50;;;25.93;19.79
14293;BME280;62290;59.420;17.842;2023-02-11T11:44:25;101345.88;;;26.04;19.43
14293;BME280;62290;59.420;17.842;2023-02-11T11:47:11;101352.34;;;26.12;19.60
14293;BME280;62290;59.420;17.842;2023-02-11T11:49:46;101360.91;;;26.17;19.35
14293;BME280;62290;59.420;17.842;2023-02-11T11:52:23;101375.69;;;26.23;18.85
14293;BME280;62290;59.420;17.842;2023-02-11T11:55:01;101384.38;;;26.26;19.13
14293;BME280;62290;59.420;17.842;2023-02-11T11:57:35;101352.34;;;26.12;19.13
14293;BME280;62290;59.420;17.842;2023-02-11T12:00:05;101387.09;;;26.26;18.60
14293;BME280;62290;59.420;17.842;2023-02-11T12:03:03;101391.63;;;26.26;18.90
14293;BME280;62290;59.420;17.842;2023-02-11T12:05:41;101403.44;;;26.25;18.37
14293;BME280;62290;59.420;17.842;2023-02-11T12:08:16;101413.41;;;26.24;18.73
14293;BME280;62290;59.420;17.842;2023-02-11T12:11:03;101409.69;;;26.25;18.35
14293;BME280;62290;59.420;17.842;2023-02-11T12:13:40;101426.50;;;26.29;18.30
14293;BME280;62290;59.420;17.842;2023-02-11T12:16:18;101432.34;;;26.34;18.15
14293;BME280;62290;59.420;17.842;2023-02-11T12:19:14;101434.78;;;26.37;18.15
14293;BME280;62290;59.420;17.842;2023-02-11T12:21:53;101451.00;;;26.37;18.46
14293;BME280;62290;59.420;17.842;2023-02-11T12:24:37;101447.19;;;26.40;18.04
14293;BME280;62290;59.420;17.842;2023-02-11T12:27:14;101462.53;;;26.39;17.92
14293;BME280;62290;59.420;17.842;2023-02-11T12:29:55;101468.81;;;26.40;18.10
14293;BME280;62290;59.420;17.842;2023-02-11T12:32:31;101467.06;;;26.38;17.60
14293;BME280;62290;59.420;17.842;2023-02-11T12:35:16;101479.75;;;26.38;18.04
14293;BME280;62290;59.420;17.842;2023-02-11T12:38:04;101482.47;;;26.38;17.52
14293;BME280;62290;59.420;17.842;2023-02-11T12:40:44;101481.72;;;26.36;17.56
14293;BME280;62290;59.420;17.842;2023-02-11T12:43:20;101489.00;;;26.35;17.53
14293;BME280;62290;59.420;17.842;2023-02-11T12:46:08;101494.41;;;26.35;17.47
14293;BME280;62290;59.420;17.842;2023-02-11T12:49:10;101501.19;;;26.30;17.87
14293;BME280;62290;59.420;17.842;2023-02-11T12:51:54;101512.72;;;26.32;17.59
14293;BME280;62290;59.420;17.842;2023-02-11T12:54:29;101516.53;;;26.29;17.69
14293;BME280;62290;59.420;17.842;2023-02-11T12:57:00;101500.78;;;26.14;17.71
14293;BME280;62290;59.420;17.842;2023-02-11T12:59:39;101544.63;;;26.38;17.68
14293;BME280;62290;59.420;17.842;2023-02-11T13:02:19;101547.19;;;26.40;17.66
14293;BME280;62290;59.420;17.842;2023-02-11T13:04:53;101558.72;;;26.42;17.31
14293;BME280;62290;59.420;17.842;2023-02-11T13:07:28;101561.28;;;26.43;17.30
14293;BME280;62290;59.420;17.842;2023-02-11T13:10:03;101563.13;;;26.43;17.19
14293;BME280;62290;59.420;17.842;2023-02-11T13:12:34;101563.53;;;26.38;17.75
14293;BME280;62290;59.420;17.842;2023-02-11T13:15:22;101561.16;;;26.24;17.78